Протозановская К-23

СКИДКИ НА СМАРТФОНЫ!

Карта отелей и гостиниц, располагающихся рядом с аэропортом Протозановская К-23 :

Протозановская К-23 Тюменская область 58° 55' 46.3188" N, 72° 46' 24.1212" E
Код аэродрома ИКАО
HEP8
Код аэродрома RU
ХЕП8
Координаты
N58.92953° E072.77337°
Превышение над уровнем моря
95
Основная полоса
Курс магнитный
Длина основной ВПП
Ширина основной ВПП
Покрытие основной ВПП
Твёрдое
Освещение ВПП
Нет
Тип: 
Вертодром
Класс аэродрома: 
Принадлежность: 
ГА
Статус: 
Действующий
Сайт: 
E-mail аэродрома: 
Страна: 
Россия
Регион: 
Тюменская область
Город: 
Дополнительная информация: 
Оператор: нет данных. Покрытие: деревянное.

Скидки на навигаторы!

Найти трансфер

С помощью этой формы Вы можете найти трансфер из аэропорта Протозановская К-23 в город, аэропорт или вокзал:

Погода в аэропортах:

Авиационная погода в Минеральные Воды

Регион: 
Погода METAR: 
URMM 190100Z 06002MPS 9999 -TSRA BKN050CB 20/17 Q1010 R30/290150 NOSIG RMK QFE729/0972
Время наблюдения
2022-08-19T01:00:00Z
Температура C
20.0
Точка росы
17.0
Направление ветра
60
Скорость ветра (узлы)
4
Метео видимость
6.21
Облачность
BKN
Нижняя граница облачности (футы)
5000
Явления погоды
-TSRA
Условия полета
VFR
Аэропорт подробнее: 
BKN – значительная (рассеянная, разорванная) облачность;
TSRA - гроза с дождём;

Авиационная погода в Батуми

Регион: 
Погода METAR: 
UGSB 190100Z 20006KT 170V230 6000 -RA SCT011 BKN020 23/22 Q1008 NOSIG
Время наблюдения
2022-08-19T01:00:00Z
Температура C
23.0
Точка росы
22.0
Направление ветра
200
Скорость ветра (узлы)
6
Метео видимость
3.73
Облачность
SCT
BKN
Нижняя граница облачности (футы)
1100
2000
Явления погоды
-RA
Условия полета
MVFR
SCT – разбросанная отдельная облачность; BKN – значительная (рассеянная, разорванная) облачность;
-RA - слабый дождь;

Авиационная погода в Сургуте

Регион: 
Погода METAR: 
USRR 190300Z 34004MPS 9999 -SHRA SCT010 BKN017CB 10/09 Q1021 R25/290060 NOSIG RMK QFE760
Время наблюдения
2022-08-19T03:00:00Z
Температура C
10.0
Точка росы
9.0
Направление ветра
340
Скорость ветра (узлы)
8
Метео видимость
6.21
Облачность
SCT
BKN
Нижняя граница облачности (футы)
1000
1700
Явления погоды
-SHRA
Условия полета
MVFR
Аэропорт подробнее: 
SCT – разбросанная отдельная облачность; BKN – значительная (рассеянная, разорванная) облачность;
-SHRA - слабый ливневой дождь;

Авиационная погода в Емельяново

Регион: 
Погода METAR: 
UNKL 190100Z 25003MPS 9999 -SHRA SCT040CB 10/09 Q1010 R29/110060 NOSIG RMK QFE732
Время наблюдения
2022-08-19T01:00:00Z
Температура C
10.0
Точка росы
9.0
Направление ветра
250
Скорость ветра (узлы)
6
Метео видимость
6.21
Облачность
SCT
Нижняя граница облачности (футы)
4000
Явления погоды
-SHRA
Условия полета
VFR
Аэропорт подробнее: 
SCT – разбросанная отдельная облачность;
-SHRA - слабый ливневой дождь;